SAS2704 EDDH-EKCH
Flight info
| Callsign | SAS2704 |
|---|---|
| Flight time | 0h 39m |
| Altitude | 23000 |
| Route | LUGEG3G LUGEG P605 GESKA/N0382F220 Z711 MONAK MONAK4C |
| Aircraft | B736/M-SDE2E3FGHIRWXY/LB1 |
Departure
| Time | 2026-05-05 08:10 |
|---|---|
| Airport | Hamburg Helmut Schmidt Airport (EDDH) |
Arrival
| Time | 2026-05-05 08:49 |
|---|---|
| Airport | Copenhagen Kastrup Airport (EKCH) |
| Time | Latitude | Longitude | Altitude | Speed | Heading |
|---|---|---|---|---|---|
| 2026-05-05 07:37 | 53.62845 | 10.00219 | 47 ft | 0 kts | 62° |
| 2026-05-05 08:04 | 53.62841 | 10.00206 | 47 ft | 3 kts | 61° |
| 2026-05-05 08:04 | 53.62831 | 10.00177 | 45 ft | 3 kts | 56° |
| 2026-05-05 08:04 | 53.62819 | 10.00150 | 45 ft | 3 kts | 46° |
| 2026-05-05 08:04 | 53.62804 | 10.00128 | 46 ft | 3 kts | 24° |
| 2026-05-05 08:05 | 53.62788 | 10.00122 | 47 ft | 2 kts | 340° |
| 2026-05-05 08:05 | 53.62785 | 10.00124 | 47 ft | 1 kts | 333° |
| 2026-05-05 08:07 | 53.62791 | 10.00118 | 46 ft | 4 kts | 333° |
| 2026-05-05 08:08 | 53.62841 | 10.00069 | 47 ft | 11 kts | 317° |
| 2026-05-05 08:08 | 53.62841 | 9.99950 | 47 ft | 11 kts | 244° |
| 2026-05-05 08:08 | 53.62813 | 9.99815 | 44 ft | 13 kts | 285° |
| 2026-05-05 08:08 | 53.62874 | 9.99740 | 44 ft | 0 kts | 333° |
| 2026-05-05 08:10 | 53.63138 | 9.99511 | 45 ft | 88 kts | 333° |
| 2026-05-05 08:10 | 53.63905 | 9.98850 | 164 ft | 149 kts | 333° |
| 2026-05-05 08:10 | 53.64896 | 9.97983 | 854 ft | 171 kts | 334° |
| 2026-05-05 08:10 | 53.65989 | 9.97000 | 1810 ft | 184 kts | 335° |
| 2026-05-05 08:11 | 53.67149 | 9.95944 | 2857 ft | 193 kts | 333° |
| 2026-05-05 08:11 | 53.68347 | 9.94934 | 3911 ft | 203 kts | 337° |
| 2026-05-05 08:11 | 53.69819 | 9.94641 | 4772 ft | 222 kts | 0° |
| 2026-05-05 08:11 | 53.71388 | 9.94692 | 5888 ft | 229 kts | 359° |
| 2026-05-05 08:12 | 53.72933 | 9.95269 | 6610 ft | 235 kts | 29° |
| 2026-05-05 08:12 | 53.74024 | 9.97314 | 6975 ft | 241 kts | 62° |
| 2026-05-05 08:12 | 53.74734 | 9.99772 | 6939 ft | 250 kts | 65° |
| 2026-05-05 08:12 | 53.75515 | 10.02633 | 7166 ft | 279 kts | 65° |
| 2026-05-05 08:13 | 53.76353 | 10.05674 | 8041 ft | 290 kts | 65° |
| 2026-05-05 08:13 | 53.77222 | 10.08769 | 9166 ft | 293 kts | 65° |
| 2026-05-05 08:13 | 53.78120 | 10.11923 | 9762 ft | 299 kts | 64° |
| 2026-05-05 08:13 | 53.79036 | 10.15100 | 10063 ft | 306 kts | 64° |
| 2026-05-05 08:14 | 53.80018 | 10.18477 | 10407 ft | 333 kts | 64° |
| 2026-05-05 08:14 | 53.81058 | 10.22041 | 10707 ft | 337 kts | 64° |
| 2026-05-05 08:14 | 53.82103 | 10.25613 | 11007 ft | 340 kts | 63° |
| 2026-05-05 08:14 | 53.83158 | 10.29216 | 11326 ft | 343 kts | 63° |
| 2026-05-05 08:15 | 53.84205 | 10.32793 | 11612 ft | 344 kts | 63° |
| 2026-05-05 08:15 | 53.85271 | 10.36441 | 11899 ft | 347 kts | 63° |
| 2026-05-05 08:15 | 53.86343 | 10.40114 | 12197 ft | 348 kts | 63° |
| 2026-05-05 08:15 | 53.87416 | 10.43797 | 12512 ft | 348 kts | 63° |
| 2026-05-05 08:16 | 53.88491 | 10.47489 | 12848 ft | 351 kts | 64° |
| 2026-05-05 08:16 | 53.89574 | 10.51220 | 13154 ft | 354 kts | 64° |
| 2026-05-05 08:16 | 53.90665 | 10.54977 | 13482 ft | 355 kts | 64° |
| 2026-05-05 08:16 | 53.91756 | 10.58746 | 13784 ft | 357 kts | 64° |
| 2026-05-05 08:17 | 53.92852 | 10.62536 | 14076 ft | 358 kts | 64° |
| 2026-05-05 08:17 | 53.94024 | 10.66280 | 14354 ft | 360 kts | 57° |
| 2026-05-05 08:17 | 53.95546 | 10.69648 | 14643 ft | 360 kts | 47° |
| 2026-05-05 08:17 | 53.97261 | 10.72772 | 14945 ft | 361 kts | 45° |
| 2026-05-05 08:18 | 53.99006 | 10.75870 | 15249 ft | 366 kts | 45° |
| 2026-05-05 08:18 | 54.00763 | 10.78998 | 15556 ft | 367 kts | 45° |
| 2026-05-05 08:18 | 54.02529 | 10.82171 | 15849 ft | 369 kts | 46° |
| 2026-05-05 08:18 | 54.04290 | 10.85363 | 16151 ft | 372 kts | 46° |
| 2026-05-05 08:19 | 54.06057 | 10.88585 | 16470 ft | 374 kts | 46° |
| 2026-05-05 08:19 | 54.07837 | 10.91842 | 16789 ft | 376 kts | 46° |
| 2026-05-05 08:19 | 54.09621 | 10.95111 | 17103 ft | 378 kts | 46° |
| 2026-05-05 08:19 | 54.11418 | 10.98406 | 17425 ft | 380 kts | 46° |
| 2026-05-05 08:20 | 54.13216 | 11.01726 | 17751 ft | 381 kts | 46° |
| 2026-05-05 08:20 | 54.14998 | 11.05030 | 18075 ft | 385 kts | 46° |
| 2026-05-05 08:20 | 54.16837 | 11.08443 | 18378 ft | 387 kts | 46° |
| 2026-05-05 08:20 | 54.18638 | 11.11789 | 18679 ft | 390 kts | 46° |
| 2026-05-05 08:21 | 54.20474 | 11.15204 | 18953 ft | 391 kts | 46° |
| 2026-05-05 08:21 | 54.22319 | 11.18644 | 19241 ft | 393 kts | 46° |
| 2026-05-05 08:21 | 54.24168 | 11.22102 | 19532 ft | 395 kts | 46° |
| 2026-05-05 08:21 | 54.26028 | 11.25585 | 19834 ft | 397 kts | 46° |
| 2026-05-05 08:22 | 54.27743 | 11.28804 | 20106 ft | 399 kts | 46° |
| 2026-05-05 08:22 | 54.29621 | 11.32332 | 20401 ft | 401 kts | 47° |
| 2026-05-05 08:22 | 54.31509 | 11.35883 | 20711 ft | 405 kts | 47° |
| 2026-05-05 08:22 | 54.33408 | 11.39460 | 21017 ft | 406 kts | 47° |
| 2026-05-05 08:23 | 54.35309 | 11.43044 | 21327 ft | 406 kts | 47° |
| 2026-05-05 08:23 | 54.37206 | 11.46627 | 21638 ft | 406 kts | 47° |
| 2026-05-05 08:23 | 54.39110 | 11.50220 | 21951 ft | 406 kts | 47° |
| 2026-05-05 08:23 | 54.40913 | 11.53624 | 22245 ft | 405 kts | 47° |
| 2026-05-05 08:24 | 54.42809 | 11.57205 | 22569 ft | 406 kts | 47° |
| 2026-05-05 08:24 | 54.44711 | 11.60804 | 22893 ft | 405 kts | 47° |
| 2026-05-05 08:24 | 54.46613 | 11.64408 | 22953 ft | 408 kts | 47° |
| 2026-05-05 08:24 | 54.48511 | 11.68009 | 22956 ft | 407 kts | 47° |
| 2026-05-05 08:25 | 54.50411 | 11.71617 | 22960 ft | 406 kts | 47° |
| 2026-05-05 08:25 | 54.52306 | 11.75217 | 22969 ft | 406 kts | 47° |
| 2026-05-05 08:25 | 54.54197 | 11.78817 | 22961 ft | 406 kts | 47° |
| 2026-05-05 08:25 | 54.56090 | 11.82424 | 22965 ft | 406 kts | 47° |
| 2026-05-05 08:26 | 54.57987 | 11.86043 | 22966 ft | 407 kts | 47° |
| 2026-05-05 08:26 | 54.59883 | 11.89669 | 22953 ft | 408 kts | 47° |
| 2026-05-05 08:26 | 54.61846 | 11.93187 | 22956 ft | 407 kts | 41° |
| 2026-05-05 08:26 | 54.64087 | 11.96159 | 22966 ft | 406 kts | 32° |
| 2026-05-05 08:27 | 54.66437 | 11.98862 | 22965 ft | 407 kts | 31° |
| 2026-05-05 08:27 | 54.68781 | 12.01498 | 22955 ft | 406 kts | 31° |
| 2026-05-05 08:27 | 54.71160 | 12.04178 | 22507 ft | 409 kts | 31° |
| 2026-05-05 08:27 | 54.73533 | 12.06878 | 22042 ft | 406 kts | 31° |
| 2026-05-05 08:28 | 54.75871 | 12.09565 | 21516 ft | 400 kts | 31° |
| 2026-05-05 08:28 | 54.78175 | 12.12232 | 21010 ft | 396 kts | 31° |
| 2026-05-05 08:28 | 54.80454 | 12.14881 | 20505 ft | 392 kts | 31° |
| 2026-05-05 08:28 | 54.82700 | 12.17497 | 20008 ft | 388 kts | 31° |
| 2026-05-05 08:29 | 54.84930 | 12.20098 | 19516 ft | 384 kts | 31° |
| 2026-05-05 08:29 | 54.87139 | 12.22677 | 19032 ft | 381 kts | 31° |
| 2026-05-05 08:29 | 54.89328 | 12.25236 | 18549 ft | 378 kts | 31° |
| 2026-05-05 08:30 | 54.93632 | 12.30274 | 17485 ft | 373 kts | 31° |
| 2026-05-05 08:30 | 54.95769 | 12.32781 | 17012 ft | 368 kts | 31° |
| 2026-05-05 08:30 | 54.97884 | 12.35260 | 16531 ft | 364 kts | 31° |
| 2026-05-05 08:30 | 54.99978 | 12.37717 | 16049 ft | 361 kts | 31° |
| 2026-05-05 08:31 | 55.02060 | 12.40153 | 15564 ft | 359 kts | 31° |
| 2026-05-05 08:31 | 55.04128 | 12.42565 | 15089 ft | 356 kts | 31° |
| 2026-05-05 08:31 | 55.06183 | 12.44962 | 14607 ft | 354 kts | 30° |
| 2026-05-05 08:31 | 55.08224 | 12.47346 | 14126 ft | 352 kts | 31° |
| 2026-05-05 08:32 | 55.10258 | 12.49726 | 13617 ft | 351 kts | 31° |
| 2026-05-05 08:32 | 55.12282 | 12.52098 | 13075 ft | 348 kts | 31° |
| 2026-05-05 08:32 | 55.14285 | 12.54449 | 12594 ft | 346 kts | 31° |
| 2026-05-05 08:32 | 55.16272 | 12.56785 | 12110 ft | 343 kts | 31° |
| 2026-05-05 08:33 | 55.18239 | 12.59098 | 11637 ft | 340 kts | 31° |
| 2026-05-05 08:33 | 55.20189 | 12.61397 | 11297 ft | 333 kts | 30° |
| 2026-05-05 08:33 | 55.22076 | 12.63625 | 11151 ft | 320 kts | 30° |
| 2026-05-05 08:33 | 55.23302 | 12.64990 | 11009 ft | 312 kts | 23° |
| 2026-05-05 08:34 | 55.25304 | 12.66312 | 10643 ft | 305 kts | 12° |
| 2026-05-05 08:34 | 55.27977 | 12.67742 | 10159 ft | 302 kts | 12° |
| 2026-05-05 08:34 | 55.29948 | 12.68816 | 10033 ft | 291 kts | 12° |
| 2026-05-05 08:34 | 55.31872 | 12.69890 | 9728 ft | 289 kts | 13° |
| 2026-05-05 08:35 | 55.33160 | 12.70618 | 9488 ft | 288 kts | 13° |
| 2026-05-05 08:35 | 55.35036 | 12.71685 | 9153 ft | 285 kts | 13° |
| 2026-05-05 08:35 | 55.36938 | 12.72771 | 8852 ft | 282 kts | 13° |
| 2026-05-05 08:35 | 55.38748 | 12.73809 | 8612 ft | 274 kts | 13° |
| 2026-05-05 08:36 | 55.40554 | 12.74843 | 8390 ft | 272 kts | 13° |
| 2026-05-05 08:36 | 55.42348 | 12.75869 | 8161 ft | 270 kts | 13° |
| 2026-05-05 08:36 | 55.44126 | 12.76889 | 7930 ft | 268 kts | 14° |
| 2026-05-05 08:36 | 55.45894 | 12.77904 | 7702 ft | 266 kts | 14° |
| 2026-05-05 08:37 | 55.47653 | 12.78914 | 7480 ft | 265 kts | 14° |
| 2026-05-05 08:37 | 55.49395 | 12.79916 | 7253 ft | 263 kts | 14° |
| 2026-05-05 08:37 | 55.51134 | 12.80917 | 7036 ft | 262 kts | 14° |
| 2026-05-05 08:37 | 55.52860 | 12.81912 | 6809 ft | 260 kts | 14° |
| 2026-05-05 08:38 | 55.54581 | 12.82905 | 6592 ft | 259 kts | 14° |
| 2026-05-05 08:38 | 55.56271 | 12.83920 | 6344 ft | 252 kts | 17° |
| 2026-05-05 08:38 | 55.57863 | 12.85053 | 6134 ft | 242 kts | 19° |
| 2026-05-05 08:38 | 55.59394 | 12.86174 | 5935 ft | 236 kts | 19° |
| 2026-05-05 08:39 | 55.60901 | 12.87271 | 5742 ft | 233 kts | 19° |
| 2026-05-05 08:39 | 55.62374 | 12.88346 | 5554 ft | 232 kts | 21° |
| 2026-05-05 08:39 | 55.63727 | 12.89925 | 5355 ft | 234 kts | 38° |
| 2026-05-05 08:39 | 55.64940 | 12.91853 | 5163 ft | 233 kts | 40° |
| 2026-05-05 08:40 | 55.66130 | 12.93799 | 4966 ft | 233 kts | 40° |
| 2026-05-05 08:40 | 55.67329 | 12.95727 | 4764 ft | 232 kts | 39° |
| 2026-05-05 08:40 | 55.68528 | 12.97641 | 4559 ft | 232 kts | 40° |
| 2026-05-05 08:40 | 55.69761 | 12.99447 | 4346 ft | 228 kts | 26° |
| 2026-05-05 08:41 | 55.71240 | 13.00310 | 4159 ft | 222 kts | 7° |
| 2026-05-05 08:41 | 55.72758 | 13.00730 | 4049 ft | 221 kts | 5° |
| 2026-05-05 08:41 | 55.74253 | 13.01101 | 3995 ft | 219 kts | 5° |
| 2026-05-05 08:41 | 55.75761 | 13.01473 | 3997 ft | 218 kts | 5° |
| 2026-05-05 08:42 | 55.77258 | 13.01422 | 3986 ft | 214 kts | 342° |
| 2026-05-05 08:42 | 55.78522 | 13.00238 | 3985 ft | 196 kts | 315° |
| 2026-05-05 08:42 | 55.79198 | 12.98352 | 3974 ft | 174 kts | 284° |
| 2026-05-05 08:42 | 55.79176 | 12.96305 | 3996 ft | 163 kts | 255° |
| 2026-05-05 08:43 | 55.78848 | 12.94357 | 3609 ft | 166 kts | 255° |
| 2026-05-05 08:43 | 55.78494 | 12.92478 | 3405 ft | 156 kts | 243° |
| 2026-05-05 08:43 | 55.77780 | 12.91064 | 3356 ft | 155 kts | 230° |
| 2026-05-05 08:43 | 55.77069 | 12.89603 | 3283 ft | 157 kts | 231° |
| 2026-05-05 08:44 | 55.76303 | 12.88244 | 3195 ft | 153 kts | 227° |
| 2026-05-05 08:44 | 55.75556 | 12.87029 | 3117 ft | 137 kts | 226° |
| 2026-05-05 08:44 | 55.74878 | 12.85953 | 3017 ft | 130 kts | 225° |
| 2026-05-05 08:44 | 55.74209 | 12.84899 | 2998 ft | 128 kts | 225° |
| 2026-05-05 08:45 | 55.73540 | 12.83849 | 3000 ft | 129 kts | 226° |
| 2026-05-05 08:45 | 55.72886 | 12.82796 | 2804 ft | 132 kts | 226° |
| 2026-05-05 08:45 | 55.72201 | 12.81717 | 2619 ft | 128 kts | 225° |
| 2026-05-05 08:45 | 55.71532 | 12.80676 | 2448 ft | 130 kts | 225° |
| 2026-05-05 08:46 | 55.70853 | 12.79624 | 2263 ft | 129 kts | 226° |
| 2026-05-05 08:46 | 55.70181 | 12.78580 | 2092 ft | 128 kts | 224° |
| 2026-05-05 08:46 | 55.69504 | 12.77537 | 1912 ft | 129 kts | 224° |
| 2026-05-05 08:46 | 55.68832 | 12.76501 | 1747 ft | 128 kts | 223° |
| 2026-05-05 08:47 | 55.68159 | 12.75457 | 1556 ft | 129 kts | 225° |
| 2026-05-05 08:47 | 55.67496 | 12.74431 | 1387 ft | 127 kts | 224° |
| 2026-05-05 08:47 | 55.66831 | 12.73403 | 1199 ft | 127 kts | 225° |
| 2026-05-05 08:47 | 55.66164 | 12.72371 | 1023 ft | 127 kts | 224° |
| 2026-05-05 08:48 | 55.65497 | 12.71337 | 841 ft | 129 kts | 225° |
| 2026-05-05 08:48 | 55.64822 | 12.70293 | 648 ft | 128 kts | 225° |
| 2026-05-05 08:48 | 55.64162 | 12.69271 | 470 ft | 124 kts | 225° |
| 2026-05-05 08:48 | 55.63521 | 12.68275 | 307 ft | 120 kts | 223° |
| 2026-05-05 08:49 | 55.62900 | 12.67294 | 148 ft | 121 kts | 221° |
| 2026-05-05 08:49 | 55.62269 | 12.66320 | 30 ft | 117 kts | 221° |
| 2026-05-05 08:49 | 55.61714 | 12.65472 | 23 ft | 81 kts | 220° |
| 2026-05-05 08:49 | 55.61421 | 12.65021 | 25 ft | 45 kts | 221° |
| 2026-05-05 08:50 | 55.61261 | 12.64635 | 26 ft | 38 kts | 249° |
| 2026-05-05 08:50 | 55.61226 | 12.64456 | 23 ft | 0 kts | 252° |
| 2026-05-05 08:51 | 55.61220 | 12.64423 | 24 ft | 8 kts | 252° |
| 2026-05-05 08:51 | 55.61191 | 12.64276 | 26 ft | 18 kts | 253° |
| 2026-05-05 08:51 | 55.61253 | 12.64104 | 23 ft | 19 kts | 358° |
| 2026-05-05 08:52 | 55.61365 | 12.64209 | 23 ft | 18 kts | 33° |
| 2026-05-05 08:52 | 55.61482 | 12.64343 | 23 ft | 22 kts | 33° |
| 2026-05-05 08:52 | 55.61623 | 12.64504 | 26 ft | 25 kts | 33° |
| 2026-05-05 08:52 | 55.61774 | 12.64677 | 25 ft | 24 kts | 33° |
| 2026-05-05 08:53 | 55.61921 | 12.64845 | 23 ft | 26 kts | 33° |
| 2026-05-05 08:53 | 55.62067 | 12.65014 | 24 ft | 26 kts | 33° |
| 2026-05-05 08:53 | 55.62194 | 12.65163 | 23 ft | 12 kts | 33° |
| 2026-05-05 08:53 | 55.62278 | 12.65209 | 23 ft | 11 kts | 32° |
| 2026-05-05 08:54 | 55.62306 | 12.65313 | 26 ft | 10 kts | 46° |
| 2026-05-05 08:54 | 55.62386 | 12.65327 | 24 ft | 13 kts | 358° |
| 2026-05-05 08:54 | 55.62442 | 12.65399 | 23 ft | 10 kts | 72° |
| 2026-05-05 08:54 | 55.62496 | 12.65456 | 23 ft | 8 kts | 23° |
| 2026-05-05 08:55 | 55.62513 | 12.65469 | 23 ft | 0 kts | 23° |